Time;durP1;ratioP1;P1;durP2;ratioP2;P2;SDS_P1;SDS_P2;PMS_P1;PMS_P2;Temp;Humidity;BMP_temperature;BMP_pressure;BME280_temperature;BME280_humidity;BME280_pressure;Samples;Min_cycle;Max_cycle;Signal;HPM_P1;HPM_P2
2024/03/11 00:02:25;;;;;;;13.50;8.40;;;;;;;;;;5067081;28;20033;-50
2024/03/11 00:04:51;;;;;;;13.45;8.32;;;;;;;;;;5067256;28;20025;-56
2024/03/11 00:07:19;;;;;;;13.70;8.98;;;;;;;;;;5067511;28;20047;-56
2024/03/11 00:09:45;;;;;;;13.50;8.32;;;;;;;;;;5067623;28;20035;-57
2024/03/11 00:12:13;;;;;;;13.38;8.13;;;;;;;;;;5067186;28;20029;-57
2024/03/11 00:14:40;;;;;;;13.50;8.50;;;;;;;;;;5067913;28;20028;-57
2024/03/11 00:17:08;;;;;;;13.43;8.25;;;;;;;;;;5067419;28;20036;-54
2024/03/11 00:19:35;;;;;;;13.57;8.60;;;;;;;;;;5067776;28;20166;-56
2024/03/11 00:22:01;;;;;;;13.60;8.63;;;;;;;;;;5067374;28;20039;-54
2024/03/11 00:24:27;;;;;;;13.57;8.60;;;;;;;;;;5067735;28;20020;-57
2024/03/11 00:26:53;;;;;;;13.38;8.05;;;;;;;;;;5067550;28;20482;-56
2024/03/11 00:29:19;;;;;;;19.83;11.50;;;;;;;;;;5067289;28;20044;-54
2024/03/11 00:31:46;;;;;;;13.68;8.70;;;;;;;;;;5066990;28;20055;-54
2024/03/11 00:34:14;;;;;;;13.90;9.27;;;;;;;;;;5066910;28;20032;-56
2024/03/11 00:36:40;;;;;;;13.50;8.40;;;;;;;;;;5067321;28;20059;-57
2024/03/11 00:39:08;;;;;;;14.15;8.75;;;;;;;;;;5067292;28;20750;-58
2024/03/11 00:41:35;;;;;;;14.55;8.60;;;;;;;;;;5091891;22;20049;-53
2024/03/11 00:44:00;;;;;;;13.57;8.65;;;;;;;;;;5071508;28;20223;-49
2024/03/11 00:46:27;;;;;;;13.57;8.70;;;;;;;;;;5071617;28;20028;-51
2024/03/11 00:48:54;;;;;;;13.60;8.73;;;;;;;;;;5071083;28;20321;-57
2024/03/11 00:51:21;;;;;;;13.50;8.30;;;;;;;;;;5071140;28;20055;-52
2024/03/11 00:53:47;;;;;;;13.45;8.35;;;;;;;;;;5071068;28;20034;-50
2024/03/11 00:56:13;;;;;;;13.40;8.00;;;;;;;;;;5053505;28;20245;-53
2024/03/11 00:58:39;;;;;;;13.50;8.20;;;;;;;;;;5053496;28;20030;-54
2024/03/11 01:01:05;;;;;;;13.50;8.32;;;;;;;;;;5071644;28;20033;-51
2024/03/11 01:03:32;;;;;;;13.23;7.80;;;;;;;;;;5071680;28;20104;-53
2024/03/11 01:05:58;;;;;;;13.57;8.13;;;;;;;;;;5072155;28;20029;-53
2024/03/11 01:08:25;;;;;;;24.58;12.65;;;;;;;;;;5071786;28;20032;-55
2024/03/11 01:10:51;;;;;;;13.38;8.02;;;;;;;;;;5071857;28;20028;-56
2024/03/11 01:13:18;;;;;;;14.10;8.48;;;;;;;;;;5071035;28;20025;-52
2024/03/11 01:15:44;;;;;;;13.38;8.00;;;;;;;;;;5071735;28;20554;-54
2024/03/11 01:18:10;;;;;;;13.38;8.20;;;;;;;;;;5071752;28;20147;-56
2024/03/11 01:20:36;;;;;;;15.05;10.82;;;;;;;;;;5071450;28;20479;-57
2024/03/11 01:23:05;;;;;;;13.20;7.80;;;;;;;;;;5070702;28;20035;-53
2024/03/11 01:25:31;;;;;;;;;;;;;;;;;;5072094;28;20024;-55
2024/03/11 01:27:57;;;;;;;13.05;7.85;;;;;;;;;;5071554;28;20476;-55
2024/03/11 01:30:24;;;;;;;13.10;7.65;;;;;;;;;;5071334;28;20056;-52
2024/03/11 01:32:50;;;;;;;13.10;7.70;;;;;;;;;;5052549;28;20031;-53
2024/03/11 01:35:17;;;;;;;14.18;9.07;;;;;;;;;;5053609;28;20028;-53
2024/03/11 01:37:43;;;;;;;13.85;8.05;;;;;;;;;;5053442;28;20024;-54
2024/03/11 01:40:15;;;;;;;12.32;7.20;;;;;;;;;;5071378;28;20593;-52
2024/03/11 01:42:42;;;;;;;13.55;8.60;;;;;;;;;;5052226;28;20036;-54
2024/03/11 01:45:08;;;;;;;14.55;8.20;;;;;;;;;;5071209;28;20437;-53
2024/03/11 01:47:34;;;;;;;12.25;7.15;;;;;;;;;;5070697;28;20020;-55
2024/03/11 01:50:00;;;;;;;11.93;7.00;;;;;;;;;;5071078;28;20027;-52
2024/03/11 01:52:29;;;;;;;11.90;6.95;;;;;;;;;;5052388;28;20025;-54
2024/03/11 01:54:56;;;;;;;12.38;7.30;;;;;;;;;;5071118;28;20032;-56
2024/03/11 01:57:22;;;;;;;11.93;6.93;;;;;;;;;;5071034;28;20032;-55
2024/03/11 01:59:49;;;;;;;12.25;7.13;;;;;;;;;;5071216;28;20032;-54
2024/03/11 02:02:15;;;;;;;12.35;7.18;;;;;;;;;;5052428;28;20514;-56
2024/03/11 02:04:45;;;;;;;12.70;7.65;;;;;;;;;;5071169;28;20078;-50
2024/03/11 02:07:15;;;;;;;11.95;6.95;;;;;;;;;;5071207;28;20609;-55
2024/03/11 02:09:42;;;;;;;12.07;7.10;;;;;;;;;;5053160;28;20108;-51
2024/03/11 02:12:14;;;;;;;12.07;7.07;;;;;;;;;;5070487;28;20021;-55
2024/03/11 02:14:42;;;;;;;12.25;7.20;;;;;;;;;;5070953;28;20176;-55
2024/03/11 02:17:09;;;;;;;13.07;7.68;;;;;;;;;;5070696;28;20025;-55
2024/03/11 02:19:35;;;;;;;13.07;7.63;;;;;;;;;;5052910;28;20020;-51
2024/03/11 02:22:02;;;;;;;14.85;9.55;;;;;;;;;;5071363;28;20021;-54
2024/03/11 02:24:28;;;;;;;13.27;7.85;;;;;;;;;;5071597;28;20035;-57
2024/03/11 02:26:54;;;;;;;13.35;8.00;;;;;;;;;;5070637;28;20095;-52
2024/03/11 02:29:20;;;;;;;13.30;8.00;;;;;;;;;;5070546;28;20052;-56
2024/03/11 02:31:50;;;;;;;13.60;8.30;;;;;;;;;;5052273;28;20020;-55
2024/03/11 02:34:16;;;;;;;13.57;8.60;;;;;;;;;;5070029;28;20075;-56
2024/03/11 02:36:49;;;;;;;13.50;8.50;;;;;;;;;;5070820;28;20099;-52
2024/03/11 02:39:16;;;;;;;13.55;8.60;;;;;;;;;;5071410;28;20031;-54
2024/03/11 02:41:43;;;;;;;13.65;8.77;;;;;;;;;;5070874;28;20035;-55
2024/03/11 02:44:09;;;;;;;13.57;8.70;;;;;;;;;;5070044;28;20032;-58
2024/03/11 02:46:35;;;;;;;13.57;8.68;;;;;;;;;;5071872;28;20023;-58
2024/03/11 02:49:02;;;;;;;13.60;8.77;;;;;;;;;;5054125;28;20016;-52
2024/03/11 02:51:30;;;;;;;13.57;8.80;;;;;;;;;;5069205;28;20505;-56
2024/03/11 02:53:56;;;;;;;13.68;8.98;;;;;;;;;;5069062;28;20063;-53
2024/03/11 02:56:22;;;;;;;13.52;8.57;;;;;;;;;;5051569;28;20029;-51
2024/03/11 02:58:49;;;;;;;13.63;8.80;;;;;;;;;;5068205;28;20162;-53
2024/03/11 03:01:16;;;;;;;13.55;8.55;;;;;;;;;;5069231;28;20104;-55
2024/03/11 03:03:42;;;;;;;15.48;12.75;;;;;;;;;;5068915;28;20020;-53
2024/03/11 03:06:08;;;;;;;13.43;8.25;;;;;;;;;;5069485;28;20020;-52
2024/03/11 03:08:35;;;;;;;13.48;8.30;;;;;;;;;;5069308;28;20483;-51
2024/03/11 03:11:02;;;;;;;13.45;8.18;;;;;;;;;;5069209;28;20021;-54
2024/03/11 03:13:29;;;;;;;13.40;8.23;;;;;;;;;;5068860;28;20145;-53
2024/03/11 03:15:55;;;;;;;13.43;8.20;;;;;;;;;;5051608;28;20852;-55
2024/03/11 03:18:21;;;;;;;13.35;8.10;;;;;;;;;;5051614;28;20040;-55
2024/03/11 03:20:48;;;;;;;13.35;7.95;;;;;;;;;;5051217;28;20039;-53
2024/03/11 03:23:14;;;;;;;13.25;7.90;;;;;;;;;;5050617;28;20044;-54
2024/03/11 03:25:40;;;;;;;13.30;8.05;;;;;;;;;;5069131;28;20024;-53
2024/03/11 03:28:06;;;;;;;13.10;7.70;;;;;;;;;;5069189;28;20021;-52
2024/03/11 03:30:35;;;;;;;14.45;9.45;;;;;;;;;;5051051;28;20111;-55
2024/03/11 03:33:03;;;;;;;13.25;7.80;;;;;;;;;;5050350;28;20040;-50
2024/03/11 03:35:29;;;;;;;13.30;7.93;;;;;;;;;;5069026;28;20099;-50
2024/03/11 03:37:56;;;;;;;13.18;7.80;;;;;;;;;;5068846;28;20028;-55
2024/03/11 03:40:23;;;;;;;13.20;7.78;;;;;;;;;;5050900;28;20501;-51
2024/03/11 03:42:49;;;;;;;13.30;7.90;;;;;;;;;;5058757;28;246595;-53
2024/03/11 03:45:16;;;;;;;13.13;7.70;;;;;;;;;;5051951;28;20017;-53
2024/03/11 03:47:42;;;;;;;13.25;7.80;;;;;;;;;;5069797;28;20035;-53
2024/03/11 03:50:12;;;;;;;20.80;13.55;;;;;;;;;;5069705;28;20086;-56
2024/03/11 03:52:38;;;;;;;13.05;7.65;;;;;;;;;;5068970;28;20031;-53
2024/03/11 03:55:05;;;;;;;13.15;7.82;;;;;;;;;;5069626;28;20104;-55
2024/03/11 03:57:32;;;;;;;13.00;7.65;;;;;;;;;;5051378;28;20020;-53
2024/03/11 03:59:58;;;;;;;13.23;7.72;;;;;;;;;;5069542;28;20107;-56
2024/03/11 04:02:24;;;;;;;13.10;7.70;;;;;;;;;;5050906;28;20060;-51
2024/03/11 04:04:51;;;;;;;13.30;7.80;;;;;;;;;;5069678;28;20586;-55
2024/03/11 04:07:17;;;;;;;12.95;7.60;;;;;;;;;;5069566;28;20052;-51
2024/03/11 04:09:43;;;;;;;12.80;7.47;;;;;;;;;;5070780;28;20044;-51
2024/03/11 04:12:09;;;;;;;13.25;7.80;;;;;;;;;;5072586;28;20555;-51
2024/03/11 04:14:36;;;;;;;13.10;7.75;;;;;;;;;;5072721;28;20028;-54
2024/03/11 04:17:03;;;;;;;13.23;7.78;;;;;;;;;;5055496;28;20075;-55
2024/03/11 04:19:30;;;;;;;13.27;7.72;;;;;;;;;;5073298;28;20024;-59
2024/03/11 04:21:56;;;;;;;12.93;7.57;;;;;;;;;;5072434;28;20074;-54
2024/03/11 04:24:22;;;;;;;13.05;7.68;;;;;;;;;;5072508;28;20055;-56
2024/03/11 04:26:50;;;;;;;13.20;7.72;;;;;;;;;;5072961;28;20020;-53
2024/03/11 04:29:16;;;;;;;12.73;7.45;;;;;;;;;;5072709;28;20033;-54
2024/03/11 04:31:42;;;;;;;14.90;12.10;;;;;;;;;;5072218;28;20039;-56
2024/03/11 04:34:08;;;;;;;13.15;7.70;;;;;;;;;;5054411;28;20040;-57
2024/03/11 04:36:36;;;;;;;13.25;7.80;;;;;;;;;;5054754;28;20028;-54
2024/03/11 04:39:04;;;;;;;12.90;7.53;;;;;;;;;;5072691;28;20032;-53
2024/03/11 04:41:31;;;;;;;12.98;7.60;;;;;;;;;;5053903;28;20036;-56
2024/03/11 04:43:57;;;;;;;13.07;7.70;;;;;;;;;;5071999;28;20031;-50
2024/03/11 04:46:23;;;;;;;13.25;7.78;;;;;;;;;;5072339;28;20032;-52
2024/03/11 04:48:49;;;;;;;12.95;7.60;;;;;;;;;;5072379;28;20021;-52
2024/03/11 04:51:15;;;;;;;12.93;7.60;;;;;;;;;;5054171;28;20025;-57
2024/03/11 04:53:41;;;;;;;13.15;7.70;;;;;;;;;;5053997;28;20040;-54
2024/03/11 04:56:08;;;;;;;13.18;7.78;;;;;;;;;;5072137;28;20032;-57
2024/03/11 04:58:36;;;;;;;13.05;7.65;;;;;;;;;;5053955;28;20482;-53
2024/03/11 05:01:04;;;;;;;13.43;8.18;;;;;;;;;;5071621;28;20032;-53
2024/03/11 05:03:30;;;;;;;13.43;8.20;;;;;;;;;;5071474;28;20561;-56
2024/03/11 05:05:56;;;;;;;13.55;8.57;;;;;;;;;;5072040;28;20036;-55
2024/03/11 05:08:22;;;;;;;13.52;8.40;;;;;;;;;;5071745;28;20039;-54
2024/03/11 05:10:50;;;;;;;13.50;8.32;;;;;;;;;;5071820;28;20047;-56
2024/03/11 05:13:16;;;;;;;13.57;8.63;;;;;;;;;;5071256;28;20134;-55
2024/03/11 05:15:47;;;;;;;13.60;8.80;;;;;;;;;;5071874;28;20560;-54
2024/03/11 05:18:13;;;;;;;13.65;8.73;;;;;;;;;;5071716;28;20036;-55
2024/03/11 05:20:39;;;;;;;13.50;8.60;;;;;;;;;;5070901;28;20041;-56
2024/03/11 05:23:06;;;;;;;13.68;9.18;;;;;;;;;;5070696;28;20028;-54
2024/03/11 05:25:32;;;;;;;13.63;8.88;;;;;;;;;;5053800;28;20020;-50
2024/03/11 05:27:58;;;;;;;13.65;8.90;;;;;;;;;;5053844;28;20023;-54
2024/03/11 05:30:24;;;;;;;13.68;8.93;;;;;;;;;;5072198;28;20021;-54
2024/03/11 05:32:50;;;;;;;13.75;9.10;;;;;;;;;;5053521;28;20548;-52
2024/03/11 05:35:17;;;;;;;13.68;8.90;;;;;;;;;;5054964;28;20033;-52
2024/03/11 05:37:43;;;;;;;13.70;9.02;;;;;;;;;;5053753;28;20029;-48
2024/03/11 05:40:12;;;;;;;14.00;9.98;;;;;;;;;;5071626;28;20034;-52
2024/03/11 05:42:42;;;;;;;14.75;11.77;;;;;;;;;;5070381;28;20029;-55
2024/03/11 05:45:08;;;;;;;13.80;9.00;;;;;;;;;;5071259;28;20024;-51
2024/03/11 05:47:34;;;;;;;13.85;9.60;;;;;;;;;;5071177;28;20104;-52
2024/03/11 05:50:03;;;;;;;13.82;9.30;;;;;;;;;;5071099;28;20048;-53
2024/03/11 05:52:30;;;;;;;13.80;9.10;;;;;;;;;;5070401;28;20033;-51
2024/03/11 05:54:57;;;;;;;13.82;9.40;;;;;;;;;;5053005;28;20120;-55
2024/03/11 05:57:26;;;;;;;13.68;8.93;;;;;;;;;;5070796;28;20108;-58
2024/03/11 05:59:52;;;;;;;13.77;9.27;;;;;;;;;;5071187;28;20029;-56
2024/03/11 06:02:21;;;;;;;13.80;9.30;;;;;;;;;;5070009;28;20029;-52
2024/03/11 06:04:47;;;;;;;14.10;9.98;;;;;;;;;;5070984;28;20032;-54
2024/03/11 06:07:17;;;;;;;13.88;9.40;;;;;;;;;;5053149;28;20021;-53
2024/03/11 06:09:43;;;;;;;13.77;9.25;;;;;;;;;;5071363;28;20111;-55
2024/03/11 06:12:10;;;;;;;14.20;10.65;;;;;;;;;;5052814;28;20028;-54
2024/03/11 06:14:36;;;;;;;13.85;9.30;;;;;;;;;;5070566;28;20105;-56
2024/03/11 06:17:06;;;;;;;13.82;9.23;;;;;;;;;;5070450;28;20071;-54
2024/03/11 06:19:32;;;;;;;13.75;9.25;;;;;;;;;;5070342;28;20021;-55
2024/03/11 06:21:58;;;;;;;13.82;9.38;;;;;;;;;;5069959;28;20063;-57
2024/03/11 06:24:24;;;;;;;13.90;9.50;;;;;;;;;;5070073;28;20480;-49
2024/03/11 06:26:53;;;;;;;13.80;9.30;;;;;;;;;;5070367;28;20025;-55
2024/03/11 06:29:19;;;;;;;13.98;9.80;;;;;;;;;;5070527;28;20031;-53
2024/03/11 06:31:48;;;;;;;13.98;9.70;;;;;;;;;;5069996;28;20025;-55
2024/03/11 06:34:14;;;;;;;13.82;9.50;;;;;;;;;;5070112;28;20025;-51
2024/03/11 06:36:41;;;;;;;13.85;9.50;;;;;;;;;;5070776;28;20031;-54
2024/03/11 06:39:08;;;;;;;14.75;11.93;;;;;;;;;;5070659;28;20505;-54
2024/03/11 06:41:34;;;;;;;13.93;9.68;;;;;;;;;;5083724;22;20048;-56
2024/03/11 06:44:01;;;;;;;13.85;9.48;;;;;;;;;;5067905;28;20030;-56
2024/03/11 06:46:28;;;;;;;14.00;9.82;;;;;;;;;;5046278;28;20070;-51
2024/03/11 06:48:55;;;;;;;13.75;9.25;;;;;;;;;;5065823;28;20103;-57
2024/03/11 06:51:21;;;;;;;13.85;9.40;;;;;;;;;;5050258;28;20514;-54
2024/03/11 06:53:47;;;;;;;13.68;9.13;;;;;;;;;;5050240;28;20021;-54
2024/03/11 06:56:13;;;;;;;13.70;9.00;;;;;;;;;;5032597;28;20467;-56
2024/03/11 06:58:39;;;;;;;13.75;9.07;;;;;;;;;;5048884;28;20170;-57
2024/03/11 07:01:11;;;;;;;14.60;12.30;;;;;;;;;;5048113;28;20025;-51
2024/03/11 07:03:38;;;;;;;13.68;8.95;;;;;;;;;;5029921;28;20032;-54
2024/03/11 07:06:04;;;;;;;13.60;8.80;;;;;;;;;;5048477;28;20025;-52
2024/03/11 07:08:32;;;;;;;13.63;8.82;;;;;;;;;;5048368;28;20025;-56
2024/03/11 07:11:01;;;;;;;13.55;8.52;;;;;;;;;;5030136;28;20482;-57
2024/03/11 07:13:37;;;;;;;13.65;9.10;;;;;;;;;;5047438;28;20032;-55
2024/03/11 07:16:04;;;;;;;13.55;8.65;;;;;;;;;;5048191;28;20395;-59
2024/03/11 07:18:31;;;;;;;13.45;8.43;;;;;;;;;;5030807;28;20071;-57
2024/03/11 07:21:04;;;;;;;13.48;8.57;;;;;;;;;;5047716;28;20049;-57
2024/03/11 07:23:31;;;;;;;14.00;10.10;;;;;;;;;;5047874;28;20040;-55
2024/03/11 07:25:58;;;;;;;13.63;8.90;;;;;;;;;;5047959;28;20035;-58
2024/03/11 07:28:28;;;;;;;13.68;8.93;;;;;;;;;;5049166;28;20071;-59
2024/03/11 07:30:55;;;;;;;13.65;8.90;;;;;;;;;;5048528;28;20021;-57
2024/03/11 07:33:22;;;;;;;13.80;9.25;;;;;;;;;;5047467;28;20151;-56
2024/03/11 07:35:50;;;;;;;13.70;8.93;;;;;;;;;;5048179;28;20541;-55
2024/03/11 07:38:16;;;;;;;13.57;8.73;;;;;;;;;;5048008;28;20048;-60
2024/03/11 07:40:42;;;;;;;13.60;8.77;;;;;;;;;;5047921;28;20067;-57
2024/03/11 07:43:08;;;;;;;13.55;8.70;;;;;;;;;;5047085;28;20040;-56
2024/03/11 07:45:35;;;;;;;13.90;9.20;;;;;;;;;;5050857;28;20017;-58
2024/03/11 07:48:01;;;;;;;13.63;8.80;;;;;;;;;;5051740;28;20542;-60
2024/03/11 07:50:28;;;;;;;14.10;10.63;;;;;;;;;;5051757;28;20024;-54
2024/03/11 07:52:54;;;;;;;13.80;9.50;;;;;;;;;;5051063;28;20431;-56
2024/03/11 07:55:23;;;;;;;13.63;8.80;;;;;;;;;;5051666;28;20052;-56
2024/03/11 07:57:51;;;;;;;13.48;8.48;;;;;;;;;;5051633;28;20100;-55
2024/03/11 08:00:20;;;;;;;13.68;8.95;;;;;;;;;;5051969;28;20056;-57
2024/03/11 08:02:47;;;;;;;13.82;9.38;;;;;;;;;;5051351;28;20021;-58
2024/03/11 08:05:13;;;;;;;14.00;9.82;;;;;;;;;;5051903;28;20017;-56
2024/03/11 08:07:43;;;;;;;14.30;10.55;;;;;;;;;;5051982;28;20025;-57
2024/03/11 08:10:09;;;;;;;13.93;9.73;;;;;;;;;;5051817;28;20021;-59
2024/03/11 08:12:36;;;;;;;15.30;11.45;;;;;;;;;;5051348;28;20033;-57
2024/03/11 08:15:04;;;;;;;14.20;10.30;;;;;;;;;;5033556;28;20024;-56
2024/03/11 08:17:30;;;;;;;;;;;;;;;;;;5051750;28;20090;-57
2024/03/11 08:19:56;;;;;;;14.00;9.80;;;;;;;;;;5051261;28;19909;-58
2024/03/11 08:22:22;;;;;;;14.20;10.00;;;;;;;;;;5050116;28;20379;-53
2024/03/11 08:24:48;;;;;;;14.00;9.80;;;;;;;;;;5051218;28;20025;-56
2024/03/11 08:27:15;;;;;;;13.95;9.82;;;;;;;;;;5051007;28;20021;-56
2024/03/11 08:29:42;;;;;;;14.10;10.10;;;;;;;;;;5051024;28;20371;-56
2024/03/11 08:32:09;;;;;;;14.00;9.95;;;;;;;;;;5032549;28;20447;-56
2024/03/11 08:34:35;;;;;;;13.98;9.75;;;;;;;;;;5050807;28;20025;-51
2024/03/11 08:37:04;;;;;;;13.90;9.55;;;;;;;;;;5050889;28;20059;-55
2024/03/11 08:39:30;;;;;;;13.98;9.90;;;;;;;;;;5051189;28;20037;-53
2024/03/11 08:41:57;;;;;;;13.80;9.30;;;;;;;;;;5049935;28;20029;-57
2024/03/11 08:44:23;;;;;;;13.73;9.18;;;;;;;;;;5032695;28;20417;-56
2024/03/11 08:46:51;;;;;;;13.82;9.45;;;;;;;;;;5048750;28;20029;-57
2024/03/11 08:49:17;;;;;;;13.67;9.03;;;;;;;;;;5048851;28;20516;-57
2024/03/11 08:51:43;;;;;;;13.80;9.20;;;;;;;;;;5048476;28;20045;-57
2024/03/11 08:54:09;;;;;;;13.77;9.23;;;;;;;;;;5047981;28;20028;-56
2024/03/11 08:56:38;;;;;;;13.88;9.40;;;;;;;;;;5048668;28;20236;-56
2024/03/11 08:59:10;;;;;;;14.20;9.20;;;;;;;;;;5048818;28;20100;-58
2024/03/11 09:01:40;;;;;;;14.00;9.98;;;;;;;;;;5048317;28;20029;-58
2024/03/11 09:04:10;;;;;;;16.20;14.50;;;;;;;;;;5049791;28;20370;-57
2024/03/11 09:06:38;;;;;;;13.73;9.00;;;;;;;;;;5050551;28;20295;-56
2024/03/11 09:09:04;;;;;;;13.70;9.10;;;;;;;;;;5050461;28;20100;-55
2024/03/11 09:11:31;;;;;;;13.77;9.27;;;;;;;;;;5050065;28;20056;-55
2024/03/11 09:13:59;;;;;;;13.80;9.30;;;;;;;;;;5049842;28;20044;-57
2024/03/11 09:16:27;;;;;;;13.50;8.73;;;;;;;;;;5051004;28;20104;-56
2024/03/11 09:18:53;;;;;;;13.63;8.88;;;;;;;;;;5050507;28;20056;-57
2024/03/11 09:21:21;;;;;;;13.60;8.77;;;;;;;;;;5050129;28;20479;-58
2024/03/11 09:23:48;;;;;;;13.55;8.50;;;;;;;;;;5049972;28;20452;-55
2024/03/11 09:26:14;;;;;;;13.40;8.20;;;;;;;;;;5032064;28;20048;-54
2024/03/11 09:28:40;;;;;;;13.50;8.48;;;;;;;;;;5049879;28;20029;-56
2024/03/11 09:31:06;;;;;;;13.50;8.50;;;;;;;;;;5049854;28;20017;-56
2024/03/11 09:33:32;;;;;;;13.50;8.57;;;;;;;;;;5049702;28;20029;-59
2024/03/11 09:35:58;;;;;;;13.57;8.55;;;;;;;;;;5049904;28;20057;-59
2024/03/11 09:38:26;;;;;;;15.10;12.60;;;;;;;;;;5049827;28;20055;-56
2024/03/11 09:40:52;;;;;;;13.60;8.70;;;;;;;;;;5049679;28;20594;-57
2024/03/11 09:43:19;;;;;;;13.70;9.10;;;;;;;;;;5048951;28;20037;-56
2024/03/11 09:45:45;;;;;;;13.57;8.55;;;;;;;;;;5049639;28;20432;-56
2024/03/11 09:48:12;;;;;;;13.55;8.57;;;;;;;;;;5049599;28;20482;-56
2024/03/11 09:50:41;;;;;;;13.65;8.77;;;;;;;;;;5049393;28;20025;-57
2024/03/11 09:53:12;;;;;;;13.48;8.38;;;;;;;;;;5048564;28;20439;-55
2024/03/11 09:55:39;;;;;;;13.70;8.80;;;;;;;;;;5049334;28;20021;-55
2024/03/11 09:58:11;;;;;;;13.25;8.00;;;;;;;;;;5049453;28;20032;-58
2024/03/11 10:00:57;;;;;;;13.32;8.02;;;;;;;;;;5049287;28;20021;-54
2024/03/11 10:03:24;;;;;;;13.35;8.00;;;;;;;;;;5048868;28;20491;-56
2024/03/11 10:05:57;;;;;;;13.65;9.18;;;;;;;;;;5049208;28;20112;-58
2024/03/11 10:08:25;;;;;;;13.68;8.88;;;;;;;;;;5048739;28;20116;-58
2024/03/11 10:11:10;;;;;;;14.23;9.53;;;;;;;;;;5049236;28;20029;-53
2024/03/11 10:13:36;;;;;;;13.60;8.70;;;;;;;;;;5048695;28;20267;-55
2024/03/11 10:16:14;;;;;;;13.75;9.00;;;;;;;;;;5031284;28;20402;-55
2024/03/11 10:18:48;;;;;;;13.87;9.53;;;;;;;;;;5031283;28;20033;-57
2024/03/11 10:21:17;;;;;;;13.68;9.00;;;;;;;;;;5048662;28;20025;-54
2024/03/11 10:23:43;;;;;;;13.63;8.75;;;;;;;;;;5048503;28;20028;-57
2024/03/11 10:26:17;;;;;;;14.98;10.50;;;;;;;;;;5049088;28;20032;-59
2024/03/11 10:28:49;;;;;;;13.82;9.60;;;;;;;;;;5048942;28;20038;-58
2024/03/11 10:31:24;;;;;;;13.95;9.68;;;;;;;;;;5048813;28;20033;-57
2024/03/11 10:33:53;;;;;;;14.52;10.32;;;;;;;;;;5048235;28;20036;-56
2024/03/11 10:36:26;;;;;;;13.68;8.93;;;;;;;;;;5048731;28;20033;-56
2024/03/11 10:38:57;;;;;;;15.48;11.68;;;;;;;;;;5048770;28;20063;-57
2024/03/11 10:41:23;;;;;;;13.70;9.13;;;;;;;;;;5048325;28;20056;-57
2024/03/11 10:43:52;;;;;;;13.80;9.30;;;;;;;;;;5048767;28;20102;-57
2024/03/11 10:46:20;;;;;;;13.77;9.25;;;;;;;;;;5048921;28;20550;-56
2024/03/11 10:48:51;;;;;;;14.00;10.00;;;;;;;;;;5048661;28;20108;-59
2024/03/11 10:51:21;;;;;;;13.65;8.90;;;;;;;;;;5047333;28;20107;-56
2024/03/11 10:53:52;;;;;;;13.80;9.40;;;;;;;;;;5042688;28;20021;-56
2024/03/11 10:56:24;;;;;;;13.65;8.80;;;;;;;;;;5056613;28;20044;-55
2024/03/11 10:58:56;;;;;;;13.60;8.70;;;;;;;;;;5068098;28;20469;-55
2024/03/11 11:01:28;;;;;;;13.70;9.00;;;;;;;;;;5067415;28;20041;-59
2024/03/11 11:03:54;;;;;;;13.48;8.52;;;;;;;;;;5067382;28;20079;-56
2024/03/11 11:06:27;;;;;;;13.68;8.95;;;;;;;;;;5050294;28;20071;-57
2024/03/11 11:08:53;;;;;;;13.73;9.07;;;;;;;;;;5068308;28;20021;-59
2024/03/11 11:11:19;;;;;;;13.63;8.75;;;;;;;;;;5068589;28;20036;-57
2024/03/11 11:13:54;;;;;;;13.77;8.95;;;;;;;;;;5067441;28;20049;-55
2024/03/11 11:16:25;;;;;;;14.73;10.85;;;;;;;;;;5068146;28;20039;-57
2024/03/11 11:18:54;;;;;;;13.80;9.30;;;;;;;;;;5067756;28;20039;-61
2024/03/11 11:21:22;;;;;;;;;;;;;;;;;;5071381;28;20032;-56
2024/03/11 11:23:51;;;;;;;15.27;9.93;;;;;;;;;;5071055;28;19908;-58
2024/03/11 11:26:36;;;;;;;17.75;15.93;;;;;;;;;;5071914;28;20021;-59
2024/03/11 11:29:02;;;;;;;13.60;8.80;;;;;;;;;;5072204;28;20021;-58
2024/03/11 11:31:32;;;;;;;13.63;8.82;;;;;;;;;;5054252;28;20021;-60
2024/03/11 11:33:59;;;;;;;15.48;10.95;;;;;;;;;;5071639;28;20371;-60
2024/03/11 11:36:36;;;;;;;13.60;8.80;;;;;;;;;;5053940;28;20478;-55
2024/03/11 11:39:05;;;;;;;14.85;9.52;;;;;;;;;;5072518;28;20058;-60
2024/03/11 11:41:34;;;;;;;13.50;8.48;;;;;;;;;;5071274;28;20029;-57
2024/03/11 11:44:00;;;;;;;13.48;8.40;;;;;;;;;;5050728;28;20386;-58
2024/03/11 11:46:50;;;;;;;13.65;8.93;;;;;;;;;;5051311;28;20036;-55
2024/03/11 11:49:17;;;;;;;13.80;9.05;;;;;;;;;;5050880;28;20025;-55
2024/03/11 11:51:45;;;;;;;13.90;8.85;;;;;;;;;;5050894;28;20158;-56
2024/03/11 11:54:25;;;;;;;13.60;8.85;;;;;;;;;;5051301;28;20058;-55
2024/03/11 11:56:51;;;;;;;13.55;8.52;;;;;;;;;;5049172;28;20017;-56
2024/03/11 11:59:19;;;;;;;13.60;8.73;;;;;;;;;;5068121;28;20039;-59
2024/03/11 12:01:46;;;;;;;13.90;9.55;;;;;;;;;;5069652;28;20065;-55
2024/03/11 12:04:14;;;;;;;14.20;9.30;;;;;;;;;;5071222;28;20074;-58
2024/03/11 12:06:40;;;;;;;14.00;9.98;;;;;;;;;;5069325;28;20036;-59
2024/03/11 12:09:12;;;;;;;16.48;12.65;;;;;;;;;;5053823;28;20025;-58
2024/03/11 12:11:45;;;;;;;15.65;11.13;;;;;;;;;;5071209;28;20085;-59
2024/03/11 12:14:11;;;;;;;14.00;10.10;;;;;;;;;;5052773;28;20036;-58
2024/03/11 12:16:39;;;;;;;13.60;8.70;;;;;;;;;;5070783;28;20475;-58
2024/03/11 12:19:05;;;;;;;13.75;9.10;;;;;;;;;;5067629;28;20040;-61
2024/03/11 12:21:33;;;;;;;13.68;9.02;;;;;;;;;;5033000;28;20025;-58
2024/03/11 12:24:07;;;;;;;13.77;9.30;;;;;;;;;;5050705;28;20056;-60
2024/03/11 12:26:34;;;;;;;16.73;10.70;;;;;;;;;;5050471;28;20513;-54
2024/03/11 12:29:08;;;;;;;13.95;9.73;;;;;;;;;;5050623;28;20037;-57
2024/03/11 12:31:35;;;;;;;13.68;9.00;;;;;;;;;;5050269;28;20029;-59
2024/03/11 12:34:10;;;;;;;14.77;9.82;;;;;;;;;;5032409;28;20082;-58
2024/03/11 12:36:40;;;;;;;16.25;10.57;;;;;;;;;;5050571;28;20100;-56
2024/03/11 12:39:21;;;;;;;14.85;9.65;;;;;;;;;;5049130;28;20063;-56
2024/03/11 12:41:47;;;;;;;14.00;9.10;;;;;;;;;;5076967;22;20749;-51
2024/03/11 12:44:19;;;;;;;13.57;8.60;;;;;;;;;;5071120;28;20033;-51
2024/03/11 12:46:47;;;;;;;13.60;8.75;;;;;;;;;;5069894;28;20049;-56
2024/03/11 12:49:14;;;;;;;13.68;8.90;;;;;;;;;;5071133;28;20032;-53
2024/03/11 12:51:40;;;;;;;13.65;8.85;;;;;;;;;;5069340;28;20123;-53
2024/03/11 12:54:24;;;;;;;14.27;10.95;;;;;;;;;;5069264;28;20033;-52
2024/03/11 12:57:10;;;;;;;16.48;9.60;;;;;;;;;;5069876;28;20486;-52
2024/03/11 12:59:40;;;;;;;13.77;9.18;;;;;;;;;;5069259;28;20024;-52
2024/03/11 13:02:09;;;;;;;13.52;8.68;;;;;;;;;;5069912;28;20474;-52
2024/03/11 13:04:36;;;;;;;13.65;8.93;;;;;;;;;;5069803;28;20086;-55
2024/03/11 13:07:06;;;;;;;13.57;8.73;;;;;;;;;;5071206;28;20027;-54
2024/03/11 13:09:33;;;;;;;13.48;8.48;;;;;;;;;;5071359;28;20144;-50
2024/03/11 13:12:03;;;;;;;13.63;8.85;;;;;;;;;;5070872;28;20103;-51
2024/03/11 13:14:29;;;;;;;13.50;8.57;;;;;;;;;;5052657;28;20024;-50
2024/03/11 13:16:56;;;;;;;13.55;8.70;;;;;;;;;;5071160;28;20032;-49
2024/03/11 13:19:25;;;;;;;13.52;8.43;;;;;;;;;;5071609;28;20297;-53
2024/03/11 13:21:51;;;;;;;13.48;8.60;;;;;;;;;;5069114;28;20164;-52
2024/03/11 13:24:23;;;;;;;13.63;8.80;;;;;;;;;;5052774;28;20146;-48
2024/03/11 13:26:50;;;;;;;13.60;8.70;;;;;;;;;;5052552;28;20021;-50
2024/03/11 13:29:16;;;;;;;13.43;8.38;;;;;;;;;;5052733;28;20093;-54
2024/03/11 13:31:43;;;;;;;13.57;8.60;;;;;;;;;;5053367;28;20508;-53
2024/03/11 13:34:10;;;;;;;13.48;8.43;;;;;;;;;;5071645;28;20032;-48
2024/03/11 13:36:37;;;;;;;13.57;8.60;;;;;;;;;;5071645;28;20039;-51
2024/03/11 13:39:15;;;;;;;15.27;12.05;;;;;;;;;;5071981;28;20382;-49
2024/03/11 13:41:41;;;;;;;13.57;8.40;;;;;;;;;;5051591;28;20033;-51
2024/03/11 13:44:10;;;;;;;13.75;9.43;;;;;;;;;;5069379;28;20035;-55
2024/03/11 13:46:37;;;;;;;13.88;9.50;;;;;;;;;;5070239;28;20431;-49
2024/03/11 13:49:03;;;;;;;13.57;8.68;;;;;;;;;;5059087;28;20028;-53
2024/03/11 13:51:29;;;;;;;13.65;8.73;;;;;;;;;;5047955;28;20387;-52
2024/03/11 13:53:55;;;;;;;13.75;8.85;;;;;;;;;;5050162;28;20031;-50
2024/03/11 13:56:21;;;;;;;13.55;8.60;;;;;;;;;;5050544;28;20075;-56
2024/03/11 13:58:49;;;;;;;13.57;8.68;;;;;;;;;;5050513;28;20036;-53
2024/03/11 14:01:16;;;;;;;13.70;8.93;;;;;;;;;;5050371;28;20104;-52
2024/03/11 14:03:42;;;;;;;13.48;8.57;;;;;;;;;;5050337;28;20032;-53
2024/03/11 14:06:08;;;;;;;14.35;9.30;;;;;;;;;;5067459;28;20029;-55
2024/03/11 14:08:37;;;;;;;13.60;8.80;;;;;;;;;;5070530;28;20032;-52
2024/03/11 14:11:05;;;;;;;13.40;8.30;;;;;;;;;;5070623;28;20029;-50
2024/03/11 14:13:33;;;;;;;13.43;8.10;;;;;;;;;;5051155;28;20066;-48
2024/03/11 14:15:59;;;;;;;13.48;8.40;;;;;;;;;;5051803;28;20024;-49
2024/03/11 14:18:26;;;;;;;13.45;8.20;;;;;;;;;;5070355;28;20055;-51
2024/03/11 14:20:52;;;;;;;13.52;8.40;;;;;;;;;;5070778;28;20020;-50
2024/03/11 14:23:18;;;;;;;13.52;8.57;;;;;;;;;;5069698;28;20024;-49
2024/03/11 14:25:45;;;;;;;13.50;8.40;;;;;;;;;;5052097;28;20020;-52
2024/03/11 14:28:12;;;;;;;13.55;8.57;;;;;;;;;;5051635;28;20020;-56
2024/03/11 14:30:40;;;;;;;14.52;9.18;;;;;;;;;;5051850;28;20032;-51
2024/03/11 14:33:07;;;;;;;14.23;9.30;;;;;;;;;;5051125;28;20410;-50